sensor_id;sensor_type;location;lat;lon;timestamp;pressure;altitude;pressure_sealevel;temperature;humidity
13476;BME280;6810;63.824;20.288;2022-10-17T06:31:42;100799.09;;;4.48;80.57
13476;BME280;6810;63.824;20.288;2022-10-17T06:34:30;100796.41;;;4.50;80.95
13476;BME280;6810;63.824;20.288;2022-10-17T06:37:17;100792.09;;;4.47;81.08
13476;BME280;6810;63.824;20.288;2022-10-17T06:40:08;100801.59;;;4.53;79.88
13476;BME280;6810;63.824;20.288;2022-10-17T06:42:55;100807.69;;;4.55;80.74
13476;BME280;6810;63.824;20.288;2022-10-17T06:45:56;100730.16;;;4.05;80.66
13476;BME280;6810;63.824;20.288;2022-10-17T06:48:53;100826.06;;;4.58;79.95
13476;BME280;6810;63.824;20.288;2022-10-17T06:51:48;100822.50;;;4.59;79.99
13476;BME280;6810;63.824;20.288;2022-10-17T06:54:43;100823.47;;;4.56;80.78
13476;BME280;6810;63.824;20.288;2022-10-17T06:57:47;100838.28;;;4.60;79.86
13476;BME280;6810;63.824;20.288;2022-10-17T07:01:01;100839.13;;;4.62;80.80
13476;BME280;6810;63.824;20.288;2022-10-17T07:03:52;100853.13;;;4.64;80.89
13476;BME280;6810;63.824;20.288;2022-10-17T07:06:40;100855.72;;;4.66;80.64
13476;BME280;6810;63.824;20.288;2022-10-17T07:09:28;100860.09;;;4.67;81.03
13476;BME280;6810;63.824;20.288;2022-10-17T07:12:16;100770.97;;;4.21;80.89
13476;BME280;6810;63.824;20.288;2022-10-17T07:15:03;100864.34;;;4.71;80.86
13476;BME280;6810;63.824;20.288;2022-10-17T07:17:50;100871.38;;;4.72;79.89
13476;BME280;6810;63.824;20.288;2022-10-17T07:20:38;100860.19;;;4.64;79.90
13476;BME280;6810;63.824;20.288;2022-10-17T07:23:25;100865.94;;;4.76;80.25
13476;BME280;6810;63.824;20.288;2022-10-17T07:26:15;100879.09;;;4.78;80.88
13476;BME280;6810;63.824;20.288;2022-10-17T07:29:02;100874.59;;;4.81;79.96
13476;BME280;6810;63.824;20.288;2022-10-17T07:31:58;100879.03;;;4.79;80.78
13476;BME280;6810;63.824;20.288;2022-10-17T07:34:45;100866.00;;;4.75;80.76
13476;BME280;6810;63.824;20.288;2022-10-17T07:37:32;100899.88;;;4.88;81.20
13476;BME280;6810;63.824;20.288;2022-10-17T07:40:20;100905.09;;;4.90;80.15
13476;BME280;6810;63.824;20.288;2022-10-17T07:43:07;100920.84;;;4.93;80.49
13476;BME280;6810;63.824;20.288;2022-10-17T07:45:54;100919.97;;;4.92;80.79
13476;BME280;6810;63.824;20.288;2022-10-17T07:48:42;100932.19;;;4.96;80.74
13476;BME280;6810;63.824;20.288;2022-10-17T07:51:29;100935.56;;;5.00;81.00
13476;BME280;6810;63.824;20.288;2022-10-17T07:54:16;100933.06;;;4.95;80.70
13476;BME280;6810;63.824;20.288;2022-10-17T07:57:03;100939.13;;;4.99;80.26
13476;BME280;6810;63.824;20.288;2022-10-17T07:59:50;100959.97;;;5.08;80.70
13476;BME280;6810;63.824;20.288;2022-10-17T08:02:21;100966.03;;;5.11;80.35
13476;BME280;6810;63.824;20.288;2022-10-17T08:04:50;100965.94;;;5.14;80.00
13476;BME280;6810;63.824;20.288;2022-10-17T08:07:33;100965.81;;;5.17;80.37
13476;BME280;6810;63.824;20.288;2022-10-17T08:10:00;100971.88;;;5.21;81.03
13476;BME280;6810;63.824;20.288;2022-10-17T08:12:27;100977.13;;;5.22;80.75
13476;BME280;6810;63.824;20.288;2022-10-17T08:15:14;100964.94;;;5.17;80.68
13476;BME280;6810;63.824;20.288;2022-10-17T08:18:01;100997.09;;;5.31;80.93
13476;BME280;6810;63.824;20.288;2022-10-17T08:20:48;100992.63;;;5.33;79.77
13476;BME280;6810;63.824;20.288;2022-10-17T08:23:35;101003.88;;;5.38;80.48
13476;BME280;6810;63.824;20.288;2022-10-17T08:26:22;100976.97;;;5.27;80.42
13476;BME280;6810;63.824;20.288;2022-10-17T08:29:14;101012.50;;;5.45;80.71
13476;BME280;6810;63.824;20.288;2022-10-17T08:32:02;101009.75;;;5.48;79.70
13476;BME280;6810;63.824;20.288;2022-10-17T08:34:49;101026.38;;;5.51;80.53
13476;BME280;6810;63.824;20.288;2022-10-17T08:37:36;101028.03;;;5.54;80.45
13476;BME280;6810;63.824;20.288;2022-10-17T08:40:25;101029.69;;;5.58;80.35
13476;BME280;6810;63.824;20.288;2022-10-17T08:43:30;101035.72;;;5.61;80.02
13476;BME280;6810;63.824;20.288;2022-10-17T08:46:19;101038.16;;;5.67;79.80
13476;BME280;6810;63.824;20.288;2022-10-17T08:49:13;101040.69;;;5.70;79.81
13476;BME280;6810;63.824;20.288;2022-10-17T08:55:31;101042.19;;;5.79;79.53
13476;BME280;6810;63.824;20.288;2022-10-17T08:58:26;101047.31;;;5.85;79.69
13476;BME280;6810;63.824;20.288;2022-10-17T09:01:48;101055.09;;;5.89;79.66
13476;BME280;6810;63.824;20.288;2022-10-17T09:10:59;101075.00;;;5.99;79.48
13476;BME280;6810;63.824;20.288;2022-10-17T09:17:09;101078.16;;;6.10;79.52
13476;BME280;6810;63.824;20.288;2022-10-17T09:22:58;101080.38;;;6.22;79.48
13476;BME280;6810;63.824;20.288;2022-10-17T09:25:27;101072.28;;;6.27;79.95
13476;BME280;6810;63.824;20.288;2022-10-17T09:28:15;101084.47;;;6.32;79.13
13476;BME280;6810;63.824;20.288;2022-10-17T09:30:53;101078.00;;;6.39;79.07
13476;BME280;6810;63.824;20.288;2022-10-17T09:33:43;101082.13;;;6.48;79.00
13476;BME280;6810;63.824;20.288;2022-10-17T09:36:34;101080.94;;;6.56;79.01
13476;BME280;6810;63.824;20.288;2022-10-17T09:39:19;101081.47;;;6.66;78.87
13476;BME280;6810;63.824;20.288;2022-10-17T09:41:54;101032.56;;;6.51;79.19
13476;BME280;6810;63.824;20.288;2022-10-17T09:44:53;101073.75;;;6.83;79.09
13476;BME280;6810;63.824;20.288;2022-10-17T09:47:46;101071.59;;;6.92;78.99
13476;BME280;6810;63.824;20.288;2022-10-17T09:50:36;101076.50;;;7.03;78.52
13476;BME280;6810;63.824;20.288;2022-10-17T09:53:50;101075.38;;;7.10;78.31
13476;BME280;6810;63.824;20.288;2022-10-17T09:57:00;101081.25;;;7.18;78.34
13476;BME280;6810;63.824;20.288;2022-10-17T10:00:00;101084.56;;;7.23;78.01
13476;BME280;6810;63.824;20.288;2022-10-17T10:02:47;101091.44;;;7.29;77.68
13476;BME280;6810;63.824;20.288;2022-10-17T10:05:34;101091.19;;;7.35;77.73
13476;BME280;6810;63.824;20.288;2022-10-17T10:08:22;101099.84;;;7.40;77.24
13476;BME280;6810;63.824;20.288;2022-10-17T10:11:12;101105.81;;;7.45;77.12
13476;BME280;6810;63.824;20.288;2022-10-17T10:14:52;101118.81;;;7.51;77.08
13476;BME280;6810;63.824;20.288;2022-10-17T10:17:34;101135.38;;;7.57;77.32
13476;BME280;6810;63.824;20.288;2022-10-17T10:20:34;101109.44;;;7.42;77.35
13476;BME280;6810;63.824;20.288;2022-10-17T10:23:21;101142.88;;;7.68;76.98
13476;BME280;6810;63.824;20.288;2022-10-17T10:26:32;101134.69;;;7.74;76.91
13476;BME280;6810;63.824;20.288;2022-10-17T10:32:20;101140.44;;;7.85;76.58
13476;BME280;6810;63.824;20.288;2022-10-17T10:38:15;101134.00;;;7.90;76.44
13476;BME280;6810;63.824;20.288;2022-10-17T10:41:08;101152.03;;;8.04;75.84
13476;BME280;6810;63.824;20.288;2022-10-17T10:43:55;101164.19;;;8.09;75.85
13476;BME280;6810;63.824;20.288;2022-10-17T10:46:42;101178.94;;;8.16;75.68
13476;BME280;6810;63.824;20.288;2022-10-17T10:49:31;101183.97;;;8.24;76.09
13476;BME280;6810;63.824;20.288;2022-10-17T10:52:26;101187.97;;;8.34;75.29
13476;BME280;6810;63.824;20.288;2022-10-17T10:55:31;101188.41;;;8.45;75.09
13476;BME280;6810;63.824;20.288;2022-10-17T11:01:44;101174.34;;;8.63;74.35
13476;BME280;6810;63.824;20.288;2022-10-17T11:07:41;101194.78;;;8.81;73.48
13476;BME280;6810;63.824;20.288;2022-10-17T11:13:20;101199.28;;;8.99;73.65
13476;BME280;6810;63.824;20.288;2022-10-17T11:22:55;101211.50;;;9.23;73.00
13476;BME280;6810;63.824;20.288;2022-10-17T11:25:45;101228.72;;;9.35;72.17
13476;BME280;6810;63.824;20.288;2022-10-17T11:28:32;101208.75;;;9.25;72.66
13476;BME280;6810;63.824;20.288;2022-10-17T11:31:20;101232.53;;;9.48;71.64
13476;BME280;6810;63.824;20.288;2022-10-17T11:34:45;101240.16;;;9.55;72.40
13476;BME280;6810;63.824;20.288;2022-10-17T11:37:37;101236.38;;;9.61;71.15
13476;BME280;6810;63.824;20.288;2022-10-17T11:40:35;101215.53;;;9.52;71.06
13476;BME280;6810;63.824;20.288;2022-10-17T11:46:20;101191.84;;;9.46;71.22
13476;BME280;6810;63.824;20.288;2022-10-17T11:49:24;101208.91;;;9.60;70.69
13476;BME280;6810;63.824;20.288;2022-10-17T11:55:25;101233.59;;;9.82;69.64
13476;BME280;6810;63.824;20.288;2022-10-17T11:58:35;101232.56;;;9.85;69.56
13476;BME280;6810;63.824;20.288;2022-10-17T12:01:38;101233.44;;;9.85;69.46
13476;BME280;6810;63.824;20.288;2022-10-17T12:04:44;101237.91;;;9.85;69.55
13476;BME280;6810;63.824;20.288;2022-10-17T12:07:49;101244.78;;;9.89;69.20
13476;BME280;6810;63.824;20.288;2022-10-17T12:10:42;101236.72;;;9.90;69.75
13476;BME280;6810;63.824;20.288;2022-10-17T12:19:23;101254.25;;;9.96;69.21
13476;BME280;6810;63.824;20.288;2022-10-17T12:22:24;101271.84;;;9.98;69.01
13476;BME280;6810;63.824;20.288;2022-10-17T12:25:19;101262.97;;;9.99;67.69
13476;BME280;6810;63.824;20.288;2022-10-17T12:28:15;101254.09;;;9.99;68.51
13476;BME280;6810;63.824;20.288;2022-10-17T12:34:03;101241.44;;;10.04;67.82
13476;BME280;6810;63.824;20.288;2022-10-17T12:36:50;101228.88;;;10.06;67.80
13476;BME280;6810;63.824;20.288;2022-10-17T12:42:29;101234.09;;;10.09;67.44
13476;BME280;6810;63.824;20.288;2022-10-17T12:45:58;101240.28;;;10.09;66.99
13476;BME280;6810;63.824;20.288;2022-10-17T12:58:00;101223.06;;;10.16;67.00
13476;BME280;6810;63.824;20.288;2022-10-17T13:00:52;101205.53;;;10.12;66.55
13476;BME280;6810;63.824;20.288;2022-10-17T13:03:55;101221.06;;;10.21;65.94
13476;BME280;6810;63.824;20.288;2022-10-17T13:06:49;101218.16;;;10.26;66.36
13476;BME280;6810;63.824;20.288;2022-10-17T13:09:41;101187.38;;;10.02;66.19
13476;BME280;6810;63.824;20.288;2022-10-17T13:12:32;101209.09;;;10.30;65.34
13476;BME280;6810;63.824;20.288;2022-10-17T13:15:20;101212.53;;;10.32;65.42
13476;BME280;6810;63.824;20.288;2022-10-17T13:18:17;101217.03;;;10.31;65.75
13476;BME280;6810;63.824;20.288;2022-10-17T13:21:12;101228.44;;;10.33;65.21
13476;BME280;6810;63.824;20.288;2022-10-17T13:24:00;101233.69;;;10.35;65.04
13476;BME280;6810;63.824;20.288;2022-10-17T13:26:47;101230.13;;;10.36;66.29
13476;BME280;6810;63.824;20.288;2022-10-17T13:29:34;101230.94;;;10.36;66.01
13476;BME280;6810;63.824;20.288;2022-10-17T13:32:22;101234.56;;;10.35;65.84
13476;BME280;6810;63.824;20.288;2022-10-17T13:35:15;101236.28;;;10.36;64.84
13476;BME280;6810;63.824;20.288;2022-10-17T13:38:28;101188.09;;;10.05;65.25
13476;BME280;6810;63.824;20.288;2022-10-17T13:41:21;101241.75;;;10.33;65.59
13476;BME280;6810;63.824;20.288;2022-10-17T13:44:16;101230.06;;;10.19;65.55
13476;BME280;6810;63.824;20.288;2022-10-17T13:47:22;101249.06;;;10.30;65.74
13476;BME280;6810;63.824;20.288;2022-10-17T13:50:34;101258.78;;;10.31;65.92
13476;BME280;6810;63.824;20.288;2022-10-17T13:53:35;101253.44;;;10.31;65.16
13476;BME280;6810;63.824;20.288;2022-10-17T13:56:24;101262.31;;;10.31;65.31
13476;BME280;6810;63.824;20.288;2022-10-17T13:59:22;101241.56;;;10.19;64.99
13476;BME280;6810;63.824;20.288;2022-10-17T14:02:14;101257.22;;;10.27;64.41
13476;BME280;6810;63.824;20.288;2022-10-17T14:08:01;101279.44;;;10.26;64.40
13476;BME280;6810;63.824;20.288;2022-10-17T14:10:49;101275.06;;;10.25;65.67
13476;BME280;6810;63.824;20.288;2022-10-17T14:13:36;101171.50;;;9.63;64.64
13476;BME280;6810;63.824;20.288;2022-10-17T14:16:25;101274.25;;;10.23;65.50
13476;BME280;6810;63.824;20.288;2022-10-17T14:19:23;101280.59;;;10.20;65.55
13476;BME280;6810;63.824;20.288;2022-10-17T14:25:32;101277.22;;;10.17;65.21
13476;BME280;6810;63.824;20.288;2022-10-17T14:28:21;101279.88;;;10.17;64.65
13476;BME280;6810;63.824;20.288;2022-10-17T14:34:19;101279.56;;;10.04;64.63
13476;BME280;6810;63.824;20.288;2022-10-17T14:37:21;101294.44;;;10.10;64.79
13476;BME280;6810;63.824;20.288;2022-10-17T14:40:16;101305.25;;;10.07;65.31
13476;BME280;6810;63.824;20.288;2022-10-17T14:43:05;101248.53;;;9.66;65.67
13476;BME280;6810;63.824;20.288;2022-10-17T14:45:56;101309.81;;;10.03;65.48
13476;BME280;6810;63.824;20.288;2022-10-17T14:48:44;101317.06;;;10.00;65.15
13476;BME280;6810;63.824;20.288;2022-10-17T14:51:31;101314.53;;;9.97;65.20
13476;BME280;6810;63.824;20.288;2022-10-17T14:54:34;101317.50;;;9.91;65.61
13476;BME280;6810;63.824;20.288;2022-10-17T14:57:27;101309.50;;;9.91;64.83
13476;BME280;6810;63.824;20.288;2022-10-17T15:00:16;101293.34;;;9.75;65.05
13476;BME280;6810;63.824;20.288;2022-10-17T15:03:04;101232.97;;;9.39;66.09
13476;BME280;6810;63.824;20.288;2022-10-17T15:05:52;101312.53;;;9.83;66.38
13476;BME280;6810;63.824;20.288;2022-10-17T15:08:39;101316.19;;;9.81;66.46
13476;BME280;6810;63.824;20.288;2022-10-17T15:11:27;101246.66;;;9.30;66.32
13476;BME280;6810;63.824;20.288;2022-10-17T15:13:54;101328.91;;;9.74;66.20
13476;BME280;6810;63.824;20.288;2022-10-17T15:16:23;101331.66;;;9.73;66.51
13476;BME280;6810;63.824;20.288;2022-10-17T15:18:52;101324.75;;;9.69;66.20
13476;BME280;6810;63.824;20.288;2022-10-17T15:21:39;101325.72;;;9.66;66.24
13476;BME280;6810;63.824;20.288;2022-10-17T15:24:26;101325.84;;;9.63;66.26
13476;BME280;6810;63.824;20.288;2022-10-17T15:27:24;101200.03;;;8.82;67.00
13476;BME280;6810;63.824;20.288;2022-10-17T15:30:21;101337.72;;;9.56;67.20
13476;BME280;6810;63.824;20.288;2022-10-17T15:33:08;101330.16;;;9.47;67.14
13476;BME280;6810;63.824;20.288;2022-10-17T15:35:55;101325.75;;;9.46;66.76
13476;BME280;6810;63.824;20.288;2022-10-17T15:38:42;101339.97;;;9.45;67.42
13476;BME280;6810;63.824;20.288;2022-10-17T15:41:31;101320.25;;;9.31;67.70
13476;BME280;6810;63.824;20.288;2022-10-17T15:44:18;101327.22;;;9.33;67.03
13476;BME280;6810;63.824;20.288;2022-10-17T15:47:05;101353.69;;;9.36;67.96
13476;BME280;6810;63.824;20.288;2022-10-17T15:49:54;101354.69;;;9.34;67.15
13476;BME280;6810;63.824;20.288;2022-10-17T15:52:41;101363.66;;;9.31;67.31
13476;BME280;6810;63.824;20.288;2022-10-17T15:55:28;101365.50;;;9.29;67.08
13476;BME280;6810;63.824;20.288;2022-10-17T15:58:16;101363.91;;;9.25;67.27
13476;BME280;6810;63.824;20.288;2022-10-17T16:01:04;101358.72;;;9.22;67.23
13476;BME280;6810;63.824;20.288;2022-10-17T16:03:51;101355.38;;;9.17;68.47
13476;BME280;6810;63.824;20.288;2022-10-17T16:06:38;101368.81;;;9.14;67.88
13476;BME280;6810;63.824;20.288;2022-10-17T16:09:25;101316.56;;;8.71;67.95
13476;BME280;6810;63.824;20.288;2022-10-17T16:12:26;101384.25;;;9.06;68.04
13476;BME280;6810;63.824;20.288;2022-10-17T16:14:54;101380.09;;;8.99;67.59
13476;BME280;6810;63.824;20.288;2022-10-17T16:17:22;101372.69;;;8.86;68.26
13476;BME280;6810;63.824;20.288;2022-10-17T16:20:13;101392.75;;;8.93;68.17
13476;BME280;6810;63.824;20.288;2022-10-17T16:23:00;101380.53;;;8.89;68.13
13476;BME280;6810;63.824;20.288;2022-10-17T16:25:49;101370.41;;;8.76;67.86
13476;BME280;6810;63.824;20.288;2022-10-17T16:28:36;101376.72;;;8.74;68.36
13476;BME280;6810;63.824;20.288;2022-10-17T16:31:26;101375.41;;;8.62;68.13
13476;BME280;6810;63.824;20.288;2022-10-17T16:34:14;101390.78;;;8.54;68.85
13476;BME280;6810;63.824;20.288;2022-10-17T16:37:01;101375.00;;;8.50;69.50
13476;BME280;6810;63.824;20.288;2022-10-17T16:39:48;101376.88;;;8.48;69.68
13476;BME280;6810;63.824;20.288;2022-10-17T16:42:35;101375.13;;;8.47;69.77
13476;BME280;6810;63.824;20.288;2022-10-17T16:45:22;101377.78;;;8.47;69.73
13476;BME280;6810;63.824;20.288;2022-10-17T16:48:10;101386.69;;;8.46;69.86
13476;BME280;6810;63.824;20.288;2022-10-17T16:50:56;101381.44;;;8.44;70.11
13476;BME280;6810;63.824;20.288;2022-10-17T16:53:45;101392.19;;;8.41;69.33
13476;BME280;6810;63.824;20.288;2022-10-17T16:56:32;101377.47;;;8.33;69.91
13476;BME280;6810;63.824;20.288;2022-10-17T16:59:19;101386.13;;;8.38;69.28
13476;BME280;6810;63.824;20.288;2022-10-17T17:02:06;101381.81;;;8.35;69.24
13476;BME280;6810;63.824;20.288;2022-10-17T17:04:53;101380.16;;;8.31;69.21
13476;BME280;6810;63.824;20.288;2022-10-17T17:07:40;101259.28;;;7.54;69.29
13476;BME280;6810;63.824;20.288;2022-10-17T17:10:27;101386.53;;;8.27;69.73
13476;BME280;6810;63.824;20.288;2022-10-17T17:13:14;101377.91;;;8.21;70.07
13476;BME280;6810;63.824;20.288;2022-10-17T17:16:10;101384.00;;;8.24;68.87
13476;BME280;6810;63.824;20.288;2022-10-17T17:19:04;101375.34;;;8.18;69.33
13476;BME280;6810;63.824;20.288;2022-10-17T17:21:51;101380.06;;;8.11;69.01
13476;BME280;6810;63.824;20.288;2022-10-17T17:24:38;101393.44;;;8.08;69.34
13476;BME280;6810;63.824;20.288;2022-10-17T17:27:27;101381.41;;;7.98;69.08
13476;BME280;6810;63.824;20.288;2022-10-17T17:30:14;101383.53;;;7.89;69.46
13476;BME280;6810;63.824;20.288;2022-10-17T17:33:01;101382.09;;;7.80;69.78
13476;BME280;6810;63.824;20.288;2022-10-17T17:35:59;101384.03;;;7.75;70.09
13476;BME280;6810;63.824;20.288;2022-10-17T17:38:48;101394.66;;;7.75;70.16
13476;BME280;6810;63.824;20.288;2022-10-17T17:41:36;101382.38;;;7.73;70.39
13476;BME280;6810;63.824;20.288;2022-10-17T17:44:22;101392.13;;;7.72;69.85
13476;BME280;6810;63.824;20.288;2022-10-17T17:47:10;101387.84;;;7.68;70.01
13476;BME280;6810;63.824;20.288;2022-10-17T17:49:57;101246.72;;;6.86;69.84
13476;BME280;6810;63.824;20.288;2022-10-17T17:52:44;101380.97;;;7.63;70.02
13476;BME280;6810;63.824;20.288;2022-10-17T17:55:32;101387.31;;;7.59;70.34
13476;BME280;6810;63.824;20.288;2022-10-17T17:58:19;101391.84;;;7.55;70.47
13476;BME280;6810;63.824;20.288;2022-10-17T18:01:20;101391.09;;;7.52;70.24
13476;BME280;6810;63.824;20.288;2022-10-17T18:04:09;101389.41;;;7.49;70.54
13476;BME280;6810;63.824;20.288;2022-10-17T18:06:56;101382.59;;;7.42;70.06
13476;BME280;6810;63.824;20.288;2022-10-17T18:09:43;101391.44;;;7.43;70.34
13476;BME280;6810;63.824;20.288;2022-10-17T18:12:31;101389.78;;;7.39;70.12
13476;BME280;6810;63.824;20.288;2022-10-17T18:15:18;101384.69;;;7.33;70.33
13476;BME280;6810;63.824;20.288;2022-10-17T18:18:05;101381.31;;;7.28;70.48
13476;BME280;6810;63.824;20.288;2022-10-17T18:20:52;101257.84;;;6.45;70.81
13476;BME280;6810;63.824;20.288;2022-10-17T18:23:40;101250.00;;;6.42;70.53
13476;BME280;6810;63.824;20.288;2022-10-17T18:26:27;101374.97;;;7.07;70.88
13476;BME280;6810;63.824;20.288;2022-10-17T18:29:14;101372.22;;;7.10;70.86
13476;BME280;6810;63.824;20.288;2022-10-17T18:32:01;101365.19;;;7.09;71.33
13476;BME280;6810;63.824;20.288;2022-10-17T18:34:48;101332.31;;;6.88;70.88
13476;BME280;6810;63.824;20.288;2022-10-17T18:37:35;101367.97;;;7.04;71.11
13476;BME280;6810;63.824;20.288;2022-10-17T18:40:22;101270.97;;;6.48;70.90
13476;BME280;6810;63.824;20.288;2022-10-17T18:43:14;101358.72;;;6.91;70.98
13476;BME280;6810;63.824;20.288;2022-10-17T18:46:07;101362.41;;;6.87;71.34
13476;BME280;6810;63.824;20.288;2022-10-17T18:48:54;101340.94;;;6.69;71.20
13476;BME280;6810;63.824;20.288;2022-10-17T18:51:42;101362.75;;;6.77;71.16
13476;BME280;6810;63.824;20.288;2022-10-17T18:54:29;101354.03;;;6.73;71.17
13476;BME280;6810;63.824;20.288;2022-10-17T18:57:16;101357.66;;;6.69;71.46
13476;BME280;6810;63.824;20.288;2022-10-17T19:00:03;101213.06;;;5.84;71.57
13476;BME280;6810;63.824;20.288;2022-10-17T19:02:51;101274.75;;;6.14;71.07
13476;BME280;6810;63.824;20.288;2022-10-17T19:05:39;101357.91;;;6.62;71.39
13476;BME280;6810;63.824;20.288;2022-10-17T19:08:26;101363.31;;;6.59;71.47
13476;BME280;6810;63.824;20.288;2022-10-17T19:11:16;101367.81;;;6.57;71.82
13476;BME280;6810;63.824;20.288;2022-10-17T19:14:06;101374.97;;;6.53;71.39
13476;BME280;6810;63.824;20.288;2022-10-17T19:16:53;101370.69;;;6.49;71.65
13476;BME280;6810;63.824;20.288;2022-10-17T19:19:40;101296.25;;;6.03;71.54
13476;BME280;6810;63.824;20.288;2022-10-17T19:22:27;101347.31;;;6.34;71.60
13476;BME280;6810;63.824;20.288;2022-10-17T19:25:15;101367.38;;;6.43;71.70
13476;BME280;6810;63.824;20.288;2022-10-17T19:28:02;101286.16;;;5.88;72.03
13476;BME280;6810;63.824;20.288;2022-10-17T19:30:49;101207.88;;;5.52;71.76
13476;BME280;6810;63.824;20.288;2022-10-17T19:33:43;101273.03;;;5.85;71.72
13476;BME280;6810;63.824;20.288;2022-10-17T19:36:32;101349.22;;;6.31;71.63
13476;BME280;6810;63.824;20.288;2022-10-17T19:39:21;101214.25;;;5.45;72.07
13476;BME280;6810;63.824;20.288;2022-10-17T19:42:08;101341.47;;;6.25;71.63
13476;BME280;6810;63.824;20.288;2022-10-17T19:44:56;101280.16;;;5.82;71.40
13476;BME280;6810;63.824;20.288;2022-10-17T19:47:44;101244.47;;;5.66;71.45
13476;BME280;6810;63.824;20.288;2022-10-17T19:50:31;101328.56;;;6.14;71.57
13476;BME280;6810;63.824;20.288;2022-10-17T19:53:19;101323.44;;;6.08;72.12
13476;BME280;6810;63.824;20.288;2022-10-17T19:56:08;101338.47;;;6.08;71.83
13476;BME280;6810;63.824;20.288;2022-10-17T19:58:55;101289.72;;;5.86;71.65
13476;BME280;6810;63.824;20.288;2022-10-17T20:01:43;101230.81;;;5.52;72.14
13476;BME280;6810;63.824;20.288;2022-10-17T20:04:30;101325.50;;;5.99;71.83
13476;BME280;6810;63.824;20.288;2022-10-17T20:07:38;101326.44;;;5.96;71.44
13476;BME280;6810;63.824;20.288;2022-10-17T20:10:25;101320.34;;;5.94;71.59
13476;BME280;6810;63.824;20.288;2022-10-17T20:13:12;101310.81;;;5.89;71.62
13476;BME280;6810;63.824;20.288;2022-10-17T20:16:00;101290.94;;;5.74;71.74
13476;BME280;6810;63.824;20.288;2022-10-17T20:18:49;101303.97;;;5.80;71.98
13476;BME280;6810;63.824;20.288;2022-10-17T20:21:36;101178.47;;;5.03;72.58
13476;BME280;6810;63.824;20.288;2022-10-17T20:24:24;101318.91;;;5.83;72.01
13476;BME280;6810;63.824;20.288;2022-10-17T20:27:11;101293.59;;;5.74;72.50
13476;BME280;6810;63.824;20.288;2022-10-17T20:29:58;101305.84;;;5.77;72.52
13476;BME280;6810;63.824;20.288;2022-10-17T20:32:45;101304.13;;;5.76;72.44
13476;BME280;6810;63.824;20.288;2022-10-17T20:35:33;101318.28;;;5.73;72.43
13476;BME280;6810;63.824;20.288;2022-10-17T20:38:20;101306.03;;;5.71;72.54
13476;BME280;6810;63.824;20.288;2022-10-17T20:41:08;101294.66;;;5.67;71.97
13476;BME280;6810;63.824;20.288;2022-10-17T20:43:55;101295.59;;;5.66;72.12
13476;BME280;6810;63.824;20.288;2022-10-17T20:46:42;101294.78;;;5.63;72.72
13476;BME280;6810;63.824;20.288;2022-10-17T20:49:32;101264.25;;;5.53;72.90
13476;BME280;6810;63.824;20.288;2022-10-17T20:52:19;101278.19;;;5.59;72.70
13476;BME280;6810;63.824;20.288;2022-10-17T20:55:06;101256.47;;;5.48;72.97
13476;BME280;6810;63.824;20.288;2022-10-17T20:57:54;101281.75;;;5.57;73.05
13476;BME280;6810;63.824;20.288;2022-10-17T21:00:41;101284.47;;;5.54;72.69
13476;BME280;6810;63.824;20.288;2022-10-17T21:03:28;101276.72;;;5.48;72.70
13476;BME280;6810;63.824;20.288;2022-10-17T21:06:16;101088.97;;;4.31;72.19
13476;BME280;6810;63.824;20.288;2022-10-17T21:09:04;101296.06;;;5.50;72.41
13476;BME280;6810;63.824;20.288;2022-10-17T21:11:52;101298.75;;;5.48;72.56
13476;BME280;6810;63.824;20.288;2022-10-17T21:14:57;101202.50;;;4.94;73.27
13476;BME280;6810;63.824;20.288;2022-10-17T21:17:44;101291.00;;;5.42;73.11
13476;BME280;6810;63.824;20.288;2022-10-17T21:20:31;101271.88;;;5.32;72.86
13476;BME280;6810;63.824;20.288;2022-10-17T21:23:18;101293.66;;;5.42;73.43
13476;BME280;6810;63.824;20.288;2022-10-17T21:26:05;101205.28;;;4.89;72.63
13476;BME280;6810;63.824;20.288;2022-10-17T21:28:52;101295.50;;;5.38;72.67
13476;BME280;6810;63.824;20.288;2022-10-17T21:31:41;101293.81;;;5.36;73.05
13476;BME280;6810;63.824;20.288;2022-10-17T21:34:45;101292.09;;;5.33;73.41
13476;BME280;6810;63.824;20.288;2022-10-17T21:37:32;101290.38;;;5.32;73.03
13476;BME280;6810;63.824;20.288;2022-10-17T21:40:19;101260.03;;;5.16;72.99
13476;BME280;6810;63.824;20.288;2022-10-17T21:43:06;101279.84;;;5.31;73.47
13476;BME280;6810;63.824;20.288;2022-10-17T21:45:53;101283.41;;;5.30;73.51
13476;BME280;6810;63.824;20.288;2022-10-17T21:48:40;101132.66;;;4.43;73.65
13476;BME280;6810;63.824;20.288;2022-10-17T21:51:27;101274.66;;;5.28;73.02
13476;BME280;6810;63.824;20.288;2022-10-17T21:54:15;101266.06;;;5.20;73.49
13476;BME280;6810;63.824;20.288;2022-10-17T21:57:02;101259.97;;;5.18;73.10
13476;BME280;6810;63.824;20.288;2022-10-17T21:59:49;101256.47;;;5.17;73.18
13476;BME280;6810;63.824;20.288;2022-10-17T22:02:37;101134.38;;;4.44;73.47
13476;BME280;6810;63.824;20.288;2022-10-17T22:05:24;101267.78;;;5.22;74.19
13476;BME280;6810;63.824;20.288;2022-10-17T22:08:11;101196.72;;;4.80;74.06
13476;BME280;6810;63.824;20.288;2022-10-17T22:11:04;101277.34;;;5.26;73.46
13476;BME280;6810;63.824;20.288;2022-10-17T22:13:53;101270.28;;;5.27;74.33
13476;BME280;6810;63.824;20.288;2022-10-17T22:16:40;101268.50;;;5.27;73.48
13476;BME280;6810;63.824;20.288;2022-10-17T22:19:27;101271.13;;;5.27;74.45
13476;BME280;6810;63.824;20.288;2022-10-17T22:22:14;101238.19;;;5.10;73.46
13476;BME280;6810;63.824;20.288;2022-10-17T22:25:01;101114.31;;;4.38;73.90
13476;BME280;6810;63.824;20.288;2022-10-17T22:27:48;101258.09;;;5.21;73.84
13476;BME280;6810;63.824;20.288;2022-10-17T22:30:35;101253.50;;;5.28;74.46
13476;BME280;6810;63.824;20.288;2022-10-17T22:33:22;101237.88;;;5.20;74.59
13476;BME280;6810;63.824;20.288;2022-10-17T22:36:09;101238.81;;;5.19;73.99
13476;BME280;6810;63.824;20.288;2022-10-17T22:38:56;101224.72;;;5.19;74.53
13476;BME280;6810;63.824;20.288;2022-10-17T22:41:43;101203.84;;;5.10;74.69
13476;BME280;6810;63.824;20.288;2022-10-17T22:44:30;101240.25;;;5.29;74.37